الصفحة الرئيسية
METAR-TAF:

METAR-TAF

مطار :

نيامي, النيجر

مطار ديوري حماني

دائرة عرض: 13-29N, خط طول: 002-10E, ارتفاع: 223 متر

مراقبة الطقس الحالي

تاريخ ووقت الإصدار 24 دقيقة قبل الساعة 18:00UTC
ريح 5 عقدة من الشرق
درجة الحرارة 33°درجة مئوية
الرطوبة 6%
ضغط 1008 hPa
الرؤية: 3500 متر
غبار

METAR: DRRN 181800Z 09005KT 3500 DU NSC 33/M09 Q1008 TEMPO 2500

زمن: 19:24 (18:24 UTC)

توقعات

تاريخ ووقت الإصدار 1ساعة و 24 دقيقة قبل الساعة 17:00UTC
التوقعات صالحة من18 الساعة 18 UTC إلى 19 الساعة 24 UTC
ريح 8 عقدة من الشرق/الشمال الشرقي
الرؤية: 4000 متر
غبار
مؤقت
من 18 الساعة 18 UTC إلى 18 الساعة 21 UTC
الرؤية: 2500 متر
أصبح
من 18 الساعة 22 UTC إلى 18 الساعة 24 UTC
الرؤية: 6000 متر
مؤقت
من 19 الساعة 06 UTC إلى 19 الساعة 09 UTC
الرؤية: 3500 متر
مؤقت
من 19 الساعة 09 UTC إلى 19 الساعة 13 UTC
ريح 16 عقدة من الشرق/الجنوب الشرقي
الرؤية: 2500 متر
هبوب الغبار

TAF: DRRN 181700Z 1818/1924 06008KT 4000 DU NSC TEMPO 1818/1821 2500 BECMG 1822/1824 6000 NSW TEMPO 1906/1909 3500 TEMPO 1909/1913 12016KT 2500 BLDU

أرصاد الطقس والتوقعات من أكثر من 4000 مطار (تقارير الطقس للمطار METAR والتنبؤ بالطقس بالمطارTAF).

المحطات المتاحة هي النقط الصفراء والحمراء على الخريطة.

حرك المؤشر فوق النقطة لمعرفة اسم المحطة.

ثم انقر لمعرفة أرصاد وتوقعات الطقس.

لتغيير الخارطة: اضغط على الأزرار الخضراء مع رمز الصليب الأسود للتكبير. على الزر الأخضر مع شرطة للتصغير، أو على الأسهم الخضراء للخرائط المجاورة.


METAR-TAF: